Time;durP1;ratioP1;P1;durP2;ratioP2;P2;SDS_P1;SDS_P2;PMS_P1;PMS_P2;Temp;Humidity;BMP_temperature;BMP_pressure;BME280_temperature;BME280_humidity;BME280_pressure;Samples;Min_cycle;Max_cycle;Signal;HPM_P1;HPM_P2
2023/03/10 00:01:13;;;;;;;2.38;2.28;;;;;;;;;;5054455;28;20485;-88
2023/03/10 00:03:40;;;;;;;4.32;4.13;;;;;;;;;;5054886;28;20393;-88
2023/03/10 00:06:07;;;;;;;2.42;2.33;;;;;;;;;;5054495;28;20049;-87
2023/03/10 00:08:34;;;;;;;3.05;2.95;;;;;;;;;;5054777;28;20099;-88
2023/03/10 00:11:02;;;;;;;6.85;6.55;;;;;;;;;;5054461;28;20053;-88
2023/03/10 00:13:28;;;;;;;5.25;5.05;;;;;;;;;;5054215;28;20103;-88
2023/03/10 00:15:55;;;;;;;2.17;2.10;;;;;;;;;;5054539;28;20048;-87
2023/03/10 00:18:21;;;;;;;4.07;3.65;;;;;;;;;;5054247;28;20052;-88
2023/03/10 00:20:50;;;;;;;3.08;2.95;;;;;;;;;;5054470;28;20053;-88
2023/03/10 00:23:16;;;;;;;3.05;2.85;;;;;;;;;;5054576;28;20083;-88
2023/03/10 00:25:43;;;;;;;1.88;1.70;;;;;;;;;;5053996;28;20045;-88
2023/03/10 00:28:11;;;;;;;1.42;1.40;;;;;;;;;;5053991;28;20049;-87
2023/03/10 00:30:37;;;;;;;2.05;1.95;;;;;;;;;;5053894;28;20052;-88
2023/03/10 00:33:04;;;;;;;2.80;2.63;;;;;;;;;;5054000;28;20546;-88
2023/03/10 00:35:30;;;;;;;2.33;2.22;;;;;;;;;;5054061;28;20041;-88
2023/03/10 00:37:56;;;;;;;4.70;2.22;;;;;;;;;;5054024;28;20079;-88
2023/03/10 00:40:23;;;;;;;3.28;2.67;;;;;;;;;;5053970;28;20044;-88
2023/03/10 00:42:49;;;;;;;1.85;1.75;;;;;;;;;;5053245;28;20102;-88
2023/03/10 00:45:17;;;;;;;1.45;1.35;;;;;;;;;;5053583;28;20057;-88
2023/03/10 00:47:44;;;;;;;2.45;2.20;;;;;;;;;;5054085;28;20049;-88
2023/03/10 00:50:11;;;;;;;2.67;2.47;;;;;;;;;;5053904;28;20048;-88
2023/03/10 00:52:38;;;;;;;3.60;3.45;;;;;;;;;;5053735;28;20052;-88
2023/03/10 00:55:04;;;;;;;1.85;1.75;;;;;;;;;;5053901;28;20052;-88
2023/03/10 00:57:31;;;;;;;1.95;1.85;;;;;;;;;;5053684;28;20056;-88
2023/03/10 00:59:57;;;;;;;4.90;4.70;;;;;;;;;;5053291;28;20389;-88
2023/03/10 01:02:25;;;;;;;2.38;2.20;;;;;;;;;;5053535;28;20110;-88
2023/03/10 01:04:52;;;;;;;3.92;3.72;;;;;;;;;;5053744;28;20048;-88
2023/03/10 01:07:18;;;;;;;3.42;3.22;;;;;;;;;;5053244;28;20075;-89
2023/03/10 01:09:45;;;;;;;1.92;1.80;;;;;;;;;;5053278;28;20052;-88
2023/03/10 01:12:11;;;;;;;2.40;2.30;;;;;;;;;;5053592;28;20049;-88
2023/03/10 01:14:38;;;;;;;1.92;1.83;;;;;;;;;;5053129;28;20106;-88
2023/03/10 01:17:04;;;;;;;1.88;1.77;;;;;;;;;;5053499;28;20041;-88
2023/03/10 01:19:32;;;;;;;2.78;2.67;;;;;;;;;;5053365;28;20049;-88
2023/03/10 01:21:59;;;;;;;1.73;1.63;;;;;;;;;;5053258;28;20045;-88
2023/03/10 01:24:25;;;;;;;3.08;2.95;;;;;;;;;;5053175;28;20044;-88
2023/03/10 01:26:52;;;;;;;3.97;3.55;;;;;;;;;;5053269;28;20138;-87
2023/03/10 01:29:18;;;;;;;3.45;3.35;;;;;;;;;;5053129;28;20056;-88
2023/03/10 01:31:45;;;;;;;2.33;2.22;;;;;;;;;;5053022;28;20044;-88
2023/03/10 01:34:11;;;;;;;2.15;2.05;;;;;;;;;;5052711;28;20094;-88
2023/03/10 01:36:40;;;;;;;5.05;4.85;;;;;;;;;;5053003;28;20239;-87
2023/03/10 01:39:07;;;;;;;2.03;1.92;;;;;;;;;;5052819;28;20094;-88
2023/03/10 01:41:37;;;;;;;2.67;2.58;;;;;;;;;;5052813;28;20067;-88
2023/03/10 01:44:03;;;;;;;5.38;5.07;;;;;;;;;;5053110;28;20440;-87
2023/03/10 01:46:43;;;;;;;2.28;2.17;;;;;;;;;;5052695;28;20558;-88
2023/03/10 01:49:16;;;;;;;2.28;2.08;;;;;;;;;;5042128;28;20103;-88
2023/03/10 01:51:47;;;;;;;3.60;3.38;;;;;;;;;;5032718;28;20444;-88
2023/03/10 01:54:16;;;;;;;1.80;1.70;;;;;;;;;;5032846;28;20460;-88
2023/03/10 01:56:43;;;;;;;1.88;1.77;;;;;;;;;;5032785;28;20053;-87
2023/03/10 01:59:10;;;;;;;3.17;2.38;;;;;;;;;;5032934;28;20425;-88
2023/03/10 02:01:36;;;;;;;4.53;4.32;;;;;;;;;;5032577;28;20056;-88
2023/03/10 02:04:05;;;;;;;3.95;3.75;;;;;;;;;;5032748;28;20107;-88
2023/03/10 02:06:32;;;;;;;2.00;1.90;;;;;;;;;;5032817;28;20168;-88
2023/03/10 02:09:01;;;;;;;3.10;2.90;;;;;;;;;;5040738;28;20053;-87
2023/03/10 02:11:28;;;;;;;4.00;3.80;;;;;;;;;;5052551;28;20049;-87
2023/03/10 02:13:55;;;;;;;2.88;2.78;;;;;;;;;;5052392;28;20041;-88
2023/03/10 02:16:21;;;;;;;3.17;2.97;;;;;;;;;;5052621;28;20459;-88
2023/03/10 02:18:48;;;;;;;3.25;3.05;;;;;;;;;;5052505;28;20417;-88
2023/03/10 02:21:17;;;;;;;5.50;2.70;;;;;;;;;;5052267;28;20049;-87
2023/03/10 02:23:48;;;;;;;4.45;4.25;;;;;;;;;;5052288;28;20061;-88
2023/03/10 02:26:14;;;;;;;;;;;;;;;;;;5052591;28;20106;-88
2023/03/10 02:28:42;;;;;;;5.38;5.07;;;;;;;;;;5048113;28;19979;-87
2023/03/10 02:31:09;;;;;;;2.47;2.05;;;;;;;;;;5032350;28;20111;-88
2023/03/10 02:33:36;;;;;;;4.15;3.92;;;;;;;;;;5032739;28;20561;-88
2023/03/10 02:36:03;;;;;;;4.15;3.90;;;;;;;;;;5032513;28;20559;-87
2023/03/10 02:38:30;;;;;;;2.38;2.28;;;;;;;;;;5032356;28;20563;-88
2023/03/10 02:40:56;;;;;;;3.58;3.40;;;;;;;;;;5032287;28;20056;-87
2023/03/10 02:43:25;;;;;;;5.38;3.13;;;;;;;;;;5032248;28;20053;-87
2023/03/10 02:45:55;;;;;;;2.50;2.40;;;;;;;;;;5032360;28;20050;-87
2023/03/10 02:48:24;;;;;;;2.22;2.10;;;;;;;;;;5032246;28;20045;-88
2023/03/10 02:50:51;;;;;;;2.33;2.22;;;;;;;;;;5032423;28;20060;-88
2023/03/10 02:53:19;;;;;;;4.32;4.10;;;;;;;;;;5032446;28;20099;-88
2023/03/10 02:55:45;;;;;;;3.40;3.20;;;;;;;;;;5032461;28;20053;-88
2023/03/10 02:58:12;;;;;;;2.25;2.05;;;;;;;;;;5031925;28;20563;-88
2023/03/10 03:00:38;;;;;;;2.35;2.25;;;;;;;;;;5032478;28;20049;-88
2023/03/10 03:03:06;;;;;;;2.20;2.10;;;;;;;;;;5032150;28;20489;-88
2023/03/10 03:05:33;;;;;;;2.55;2.35;;;;;;;;;;5033668;28;20053;-88
2023/03/10 03:07:59;;;;;;;2.97;2.78;;;;;;;;;;5035663;28;20057;-88
2023/03/10 03:10:26;;;;;;;1.67;1.58;;;;;;;;;;5035843;28;20049;-88
2023/03/10 03:12:54;;;;;;;2.95;2.83;;;;;;;;;;5035607;28;20045;-88
2023/03/10 03:15:21;;;;;;;2.55;2.45;;;;;;;;;;5035797;28;20121;-88
2023/03/10 03:17:48;;;;;;;2.80;2.67;;;;;;;;;;5035735;28;20049;-88
2023/03/10 03:20:16;;;;;;;2.60;2.42;;;;;;;;;;5035876;28;20049;-88
2023/03/10 03:22:44;;;;;;;2.75;2.63;;;;;;;;;;5035800;28;20057;-88
2023/03/10 03:25:11;;;;;;;1.85;1.75;;;;;;;;;;5035573;28;20049;-88
2023/03/10 03:27:38;;;;;;;2.40;2.30;;;;;;;;;;5035268;28;20546;-88
2023/03/10 03:30:05;;;;;;;1.77;1.67;;;;;;;;;;5035318;28;20053;-87
2023/03/10 03:32:31;;;;;;;1.23;1.15;;;;;;;;;;5035268;28;20500;-88
2023/03/10 03:35:00;;;;;;;2.22;2.13;;;;;;;;;;5035365;28;20041;-88
2023/03/10 03:37:28;;;;;;;2.53;2.35;;;;;;;;;;5035511;28;20056;-88
2023/03/10 03:39:54;;;;;;;1.60;1.50;;;;;;;;;;5034953;28;20081;-87
2023/03/10 03:42:21;;;;;;;2.63;2.53;;;;;;;;;;5035171;28;20123;-88
2023/03/10 03:44:47;;;;;;;2.35;2.20;;;;;;;;;;5035234;28;20099;-88
2023/03/10 03:47:14;;;;;;;6.80;6.50;;;;;;;;;;5034884;28;20452;-88
2023/03/10 03:49:40;;;;;;;2.85;2.65;;;;;;;;;;5035190;28;20049;-87
2023/03/10 03:52:07;;;;;;;3.88;3.70;;;;;;;;;;5035308;28;20049;-88
2023/03/10 03:54:35;;;;;;;2.25;2.15;;;;;;;;;;5034720;28;20053;-87
2023/03/10 03:57:01;;;;;;;1.73;1.40;;;;;;;;;;5034482;28;20547;-87
2023/03/10 03:59:28;;;;;;;2.97;2.88;;;;;;;;;;5034525;28;20046;-87
2023/03/10 04:01:54;;;;;;;6.22;2.60;;;;;;;;;;5034614;28;20046;-88
2023/03/10 04:04:21;;;;;;;4.18;3.97;;;;;;;;;;5039364;28;20045;-87
2023/03/10 04:06:47;;;;;;;3.97;3.78;;;;;;;;;;5054450;28;20489;-88
2023/03/10 04:09:14;;;;;;;2.45;2.35;;;;;;;;;;5054717;28;20106;-88
2023/03/10 04:11:41;;;;;;;1.83;1.73;;;;;;;;;;5054641;28;20045;-88
2023/03/10 04:14:08;;;;;;;1.85;1.75;;;;;;;;;;5054692;28;20049;-88
2023/03/10 04:16:34;;;;;;;2.40;2.30;;;;;;;;;;5054350;28;20072;-88
2023/03/10 04:19:01;;;;;;;2.25;2.15;;;;;;;;;;5054161;28;20053;-88
2023/03/10 04:21:28;;;;;;;1.95;1.85;;;;;;;;;;5054454;28;20041;-88
2023/03/10 04:23:55;;;;;;;2.60;2.45;;;;;;;;;;5054347;28;20091;-87
2023/03/10 04:26:21;;;;;;;1.73;1.58;;;;;;;;;;5034369;28;20050;-88
2023/03/10 04:28:49;;;;;;;2.22;2.13;;;;;;;;;;5034119;28;20045;-88
2023/03/10 04:31:17;;;;;;;2.13;1.33;;;;;;;;;;5034312;28;20460;-88
2023/03/10 04:33:43;;;;;;;3.55;3.08;;;;;;;;;;5034095;28;20053;-87
2023/03/10 04:36:10;;;;;;;3.22;3.05;;;;;;;;;;5034024;28;20115;-87
2023/03/10 04:38:37;;;;;;;2.90;2.70;;;;;;;;;;5033810;28;20045;-87
2023/03/10 04:41:04;;;;;;;1.40;1.30;;;;;;;;;;5033867;28;20049;-88
2023/03/10 04:43:31;;;;;;;2.17;1.67;;;;;;;;;;5034021;28;20452;-87
2023/03/10 04:45:59;;;;;;;2.20;2.03;;;;;;;;;;5033700;28;20049;-87
2023/03/10 04:48:25;;;;;;;4.00;3.78;;;;;;;;;;5034173;28;20107;-87
2023/03/10 04:50:55;;;;;;;2.03;1.92;;;;;;;;;;5034053;28;20099;-88
2023/03/10 04:53:21;;;;;;;1.42;1.13;;;;;;;;;;5033797;28;20049;-87
2023/03/10 04:55:50;;;;;;;2.53;1.48;;;;;;;;;;5033876;28;20075;-88
2023/03/10 04:58:16;;;;;;;2.28;2.13;;;;;;;;;;5034083;28;20115;-88
2023/03/10 05:00:43;;;;;;;4.95;4.57;;;;;;;;;;5033710;28;20046;-88
2023/03/10 05:03:11;;;;;;;1.80;1.70;;;;;;;;;;5033818;28;20050;-88
2023/03/10 05:05:37;;;;;;;2.53;2.33;;;;;;;;;;5033543;28;20050;-88
2023/03/10 05:08:04;;;;;;;3.28;3.08;;;;;;;;;;5033936;28;20057;-88
2023/03/10 05:10:31;;;;;;;2.65;2.53;;;;;;;;;;5033450;28;20107;-88
2023/03/10 05:12:57;;;;;;;2.63;2.25;;;;;;;;;;5033613;28;20053;-88
2023/03/10 05:15:24;;;;;;;3.20;2.90;;;;;;;;;;5042579;28;20041;-88
2023/03/10 05:17:50;;;;;;;3.80;3.60;;;;;;;;;;5053591;28;20053;-88
2023/03/10 05:20:19;;;;;;;1.98;1.88;;;;;;;;;;5053079;28;20091;-88
2023/03/10 05:22:45;;;;;;;3.30;2.03;;;;;;;;;;5053139;28;20055;-88
2023/03/10 05:25:12;;;;;;;2.83;2.58;;;;;;;;;;5045716;28;20100;-88
2023/03/10 05:27:38;;;;;;;2.70;2.60;;;;;;;;;;5033002;28;20045;-88
2023/03/10 05:30:06;;;;;;;3.13;2.72;;;;;;;;;;5033264;28;20115;-88
2023/03/10 05:32:34;;;;;;;2.50;2.30;;;;;;;;;;5033404;28;20045;-89
2023/03/10 05:35:00;;;;;;;1.77;1.67;;;;;;;;;;5033217;28;20115;-88
2023/03/10 05:37:28;;;;;;;2.10;1.92;;;;;;;;;;5033408;28;20049;-88
2023/03/10 05:39:54;;;;;;;1.30;1.20;;;;;;;;;;5036910;28;20042;-88
2023/03/10 05:42:21;;;;;;;1.98;1.88;;;;;;;;;;5052633;28;20041;-88
2023/03/10 05:44:48;;;;;;;8.27;7.10;;;;;;;;;;5049677;28;20464;-89
2023/03/10 05:47:17;;;;;;;2.42;2.33;;;;;;;;;;5033163;28;20045;-88
2023/03/10 05:49:44;;;;;;;3.35;3.15;;;;;;;;;;5032614;28;20088;-88
2023/03/10 05:52:10;;;;;;;4.40;2.50;;;;;;;;;;5033133;28;20050;-88
2023/03/10 05:54:38;;;;;;;2.33;2.17;;;;;;;;;;5044850;28;20639;-89
2023/03/10 05:57:05;;;;;;;2.30;2.20;;;;;;;;;;5046602;28;20107;-89
2023/03/10 05:59:31;;;;;;;3.78;3.42;;;;;;;;;;5050167;28;20096;-89
2023/03/10 06:01:58;;;;;;;2.50;2.40;;;;;;;;;;5052723;28;20098;-89
2023/03/10 06:04:27;;;;;;;3.55;3.38;;;;;;;;;;5052585;28;20106;-89
2023/03/10 06:06:54;;;;;;;3.85;3.53;;;;;;;;;;5052223;28;20075;-89
2023/03/10 06:09:21;;;;;;;3.60;3.40;;;;;;;;;;5052594;28;20049;-89
2023/03/10 06:11:49;;;;;;;5.15;4.72;;;;;;;;;;5052727;28;20044;-88
2023/03/10 06:14:15;;;;;;;5.57;5.05;;;;;;;;;;5052755;28;20049;-89
2023/03/10 06:16:43;;;;;;;4.25;3.85;;;;;;;;;;5052021;28;20464;-88
2023/03/10 06:19:10;;;;;;;5.95;5.55;;;;;;;;;;5052165;28;20092;-88
2023/03/10 06:21:36;;;;;;;5.78;5.30;;;;;;;;;;5052376;28;20079;-88
2023/03/10 06:24:03;;;;;;;6.65;6.05;;;;;;;;;;5052469;28;20107;-89
2023/03/10 06:26:29;;;;;;;4.90;4.50;;;;;;;;;;5037875;28;20052;-89
2023/03/10 06:28:57;;;;;;;6.97;5.50;;;;;;;;;;5032575;28;20050;-88
2023/03/10 06:31:24;;;;;;;4.47;4.18;;;;;;;;;;5032570;28;20119;-89
2023/03/10 06:33:51;;;;;;;5.28;4.85;;;;;;;;;;5032675;28;20046;-90
2023/03/10 06:36:18;;;;;;;3.38;3.05;;;;;;;;;;5032254;28;20049;-89
2023/03/10 06:38:44;;;;;;;4.45;4.15;;;;;;;;;;5032128;28;20559;-90
2023/03/10 06:41:11;;;;;;;3.47;3.17;;;;;;;;;;5035117;28;20115;-90
2023/03/10 06:43:37;;;;;;;3.78;3.58;;;;;;;;;;5036359;28;20045;-90
2023/03/10 06:46:06;;;;;;;6.72;6.22;;;;;;;;;;5041796;28;20045;-90
2023/03/10 06:48:33;;;;;;;4.85;4.45;;;;;;;;;;5036976;28;20060;-91
2023/03/10 06:51:00;;;;;;;6.28;5.78;;;;;;;;;;5044961;28;20114;-90
2023/03/10 06:53:26;;;;;;;6.65;6.00;;;;;;;;;;5056076;28;20539;-90
2023/03/10 06:55:57;;;;;;;11.82;11.00;;;;;;;;;;5056290;28;20045;-91
2023/03/10 06:58:23;;;;;;;9.27;8.43;;;;;;;;;;5055919;28;20049;-91
2023/03/10 07:00:50;;;;;;;12.88;8.82;;;;;;;;;;5055905;28;20053;-90
2023/03/10 07:03:18;;;;;;;10.15;9.15;;;;;;;;;;5055966;28;20041;-91
2023/03/10 07:05:44;;;;;;;10.02;9.23;;;;;;;;;;5055814;28;20412;-90
2023/03/10 07:08:11;;;;;;;10.63;9.52;;;;;;;;;;5055441;28;20118;-90
2023/03/10 07:10:37;;;;;;;8.90;7.97;;;;;;;;;;5055785;28;20048;-91
2023/03/10 07:13:04;;;;;;;7.63;7.10;;;;;;;;;;5055727;28;20492;-90
2023/03/10 07:15:30;;;;;;;7.05;6.65;;;;;;;;;;5056169;28;20045;-91
2023/03/10 07:17:57;;;;;;;5.32;5.03;;;;;;;;;;5055450;28;20056;-91
2023/03/10 07:20:25;;;;;;;4.93;4.53;;;;;;;;;;5056206;28;20136;-91
2023/03/10 07:22:52;;;;;;;4.15;3.78;;;;;;;;;;5055589;28;20057;-91
2023/03/10 07:25:18;;;;;;;4.95;4.72;;;;;;;;;;5055847;28;20095;-91
2023/03/10 07:27:45;;;;;;;6.20;5.78;;;;;;;;;;5056357;28;20044;-91
2023/03/10 07:30:12;;;;;;;5.63;5.20;;;;;;;;;;5055534;28;20079;-91
2023/03/10 07:32:38;;;;;;;8.45;6.93;;;;;;;;;;5055367;28;20096;-91
2023/03/10 07:35:05;;;;;;;5.65;5.15;;;;;;;;;;5056063;28;20596;-90
2023/03/10 07:37:36;;;;;;;4.95;4.65;;;;;;;;;;5055572;28;20118;-90
2023/03/10 07:40:03;;;;;;;;;;;;;;;;;;5057196;28;20053;-91
2023/03/10 07:42:29;;;;;;;4.90;4.60;;;;;;;;;;5055762;28;20321;-89
2023/03/10 07:44:56;;;;;;;6.75;5.57;;;;;;;;;;5055601;28;20053;-90
2023/03/10 07:47:22;;;;;;;4.32;3.92;;;;;;;;;;5055043;28;20404;-90
2023/03/10 07:49:49;;;;;;;7.35;4.40;;;;;;;;;;5055594;28;20049;-90
2023/03/10 07:52:17;;;;;;;6.53;6.13;;;;;;;;;;5054923;28;20469;-90
2023/03/10 07:54:44;;;;;;;4.25;3.83;;;;;;;;;;5054852;28;20060;-90
2023/03/10 07:57:11;;;;;;;5.45;5.05;;;;;;;;;;5055057;28;20061;-90
2023/03/10 07:59:38;;;;;;;8.63;7.20;;;;;;;;;;5055163;28;20045;-90
2023/03/10 08:02:04;;;;;;;3.83;3.63;;;;;;;;;;5055096;28;20447;-90
2023/03/10 08:04:31;;;;;;;6.07;5.68;;;;;;;;;;5054769;28;20045;-91
2023/03/10 08:07:00;;;;;;;5.57;5.25;;;;;;;;;;5054811;28;20049;-90
2023/03/10 08:09:27;;;;;;;4.85;4.47;;;;;;;;;;5054703;28;20492;-90
2023/03/10 08:11:55;;;;;;;2.58;2.47;;;;;;;;;;5055126;28;20471;-90
2023/03/10 08:14:22;;;;;;;4.20;3.88;;;;;;;;;;5055114;28;20158;-91
2023/03/10 08:16:49;;;;;;;5.43;5.05;;;;;;;;;;5054869;28;20052;-90
2023/03/10 08:19:16;;;;;;;5.78;5.38;;;;;;;;;;5054738;28;20053;-91
2023/03/10 08:21:43;;;;;;;6.53;6.03;;;;;;;;;;5054848;28;20122;-90
2023/03/10 08:24:09;;;;;;;5.85;4.50;;;;;;;;;;5054712;28;20132;-90
2023/03/10 08:26:36;;;;;;;9.38;8.82;;;;;;;;;;5054876;28;20390;-92
2023/03/10 08:29:04;;;;;;;5.80;5.35;;;;;;;;;;5054600;28;20053;-91
2023/03/10 08:31:31;;;;;;;4.05;3.83;;;;;;;;;;5054461;28;20049;-90
2023/03/10 08:33:58;;;;;;;6.30;5.95;;;;;;;;;;5054362;28;20602;-92
2023/03/10 08:36:25;;;;;;;6.50;5.95;;;;;;;;;;5048168;28;20049;-91
2023/03/10 08:38:52;;;;;;;9.45;8.38;;;;;;;;;;5034731;28;20107;-92
2023/03/10 08:41:20;;;;;;;10.60;10.02;;;;;;;;;;5042467;28;20151;-92
2023/03/10 08:43:46;;;;;;;9.75;6.72;;;;;;;;;;5054261;28;20091;-93
2023/03/10 08:46:14;;;;;;;5.38;5.15;;;;;;;;;;5054231;28;20439;-94
2023/03/10 08:48:41;;;;;;;5.50;5.00;;;;;;;;;;5054664;28;20463;-92
2023/03/10 08:51:08;;;;;;;5.90;5.38;;;;;;;;;;5054290;28;20049;-92
2023/03/10 08:53:35;;;;;;;4.93;3.67;;;;;;;;;;5054105;28;20182;-92
2023/03/10 08:56:01;;;;;;;4.50;4.22;;;;;;;;;;5054337;28;20053;-93
2023/03/10 08:58:28;;;;;;;4.00;3.85;;;;;;;;;;5054198;28;20118;-93
2023/03/10 09:00:55;;;;;;;7.07;6.78;;;;;;;;;;5054139;28;20091;-94
2023/03/10 09:03:23;;;;;;;5.55;5.10;;;;;;;;;;5053393;28;20052;-95
2023/03/10 09:05:50;;;;;;;5.68;5.18;;;;;;;;;;5054007;28;20053;-95
2023/03/10 09:08:16;;;;;;;4.72;4.35;;;;;;;;;;5053895;28;20488;-93
2023/03/10 09:10:44;;;;;;;7.47;7.00;;;;;;;;;;5053924;28;20084;-94
2023/03/10 09:13:10;;;;;;;4.20;3.97;;;;;;;;;;5054277;28;20448;-94
2023/03/10 09:15:39;;;;;;;6.60;6.10;;;;;;;;;;5054124;28;20130;-94
2023/03/10 09:18:06;;;;;;;5.65;5.32;;;;;;;;;;5035612;28;20401;-94
2023/03/10 09:20:34;;;;;;;5.93;5.53;;;;;;;;;;5033811;28;20053;-93
2023/03/10 09:23:01;;;;;;;9.18;8.57;;;;;;;;;;5033827;28;20107;-93
2023/03/10 09:25:28;;;;;;;5.80;5.43;;;;;;;;;;5033631;28;20049;-93
2023/03/10 09:27:54;;;;;;;4.38;4.18;;;;;;;;;;5034549;28;20115;-93
2023/03/10 09:30:21;;;;;;;4.15;3.95;;;;;;;;;;5035493;28;20123;-93
2023/03/10 09:32:47;;;;;;;4.07;3.88;;;;;;;;;;5033877;28;20045;-93
2023/03/10 09:35:14;;;;;;;3.83;3.65;;;;;;;;;;5033309;28;20041;-93
2023/03/10 09:37:42;;;;;;;5.03;4.82;;;;;;;;;;5033841;28;20041;-93
2023/03/10 09:40:13;;;;;;;5.03;4.82;;;;;;;;;;5033566;28;20053;-92
2023/03/10 09:42:40;;;;;;;4.07;3.83;;;;;;;;;;5033669;28;20136;-93
2023/03/10 09:45:17;;;;;;;4.22;4.03;;;;;;;;;;5033571;28;20045;-91
2023/03/10 09:47:47;;;;;;;3.63;3.47;;;;;;;;;;5033213;28;20084;-90
2023/03/10 09:50:24;;;;;;;8.18;7.85;;;;;;;;;;5033366;28;20464;-92
2023/03/10 09:52:56;;;;;;;3.63;3.42;;;;;;;;;;5033267;28;20107;-91
2023/03/10 09:55:25;;;;;;;4.80;4.60;;;;;;;;;;5033459;28;20053;-92
2023/03/10 09:57:53;;;;;;;3.95;3.75;;;;;;;;;;5032981;28;20558;-92
2023/03/10 10:00:21;;;;;;;3.67;3.55;;;;;;;;;;5033400;28;20053;-91
2023/03/10 10:02:49;;;;;;;5.93;5.60;;;;;;;;;;5033158;28;20058;-91
2023/03/10 10:05:20;;;;;;;4.85;4.55;;;;;;;;;;5032724;28;20088;-91
2023/03/10 10:07:46;;;;;;;;;;;;;;;;;;5033550;28;20053;-90
2023/03/10 10:10:17;;;;;;;3.45;3.25;;;;;;;;;;5032825;28;19924;-92
2023/03/10 10:12:44;;;;;;;3.88;3.75;;;;;;;;;;5033038;28;20049;-91
2023/03/10 10:15:14;;;;;;;4.07;3.83;;;;;;;;;;5035700;28;20049;-90
2023/03/10 10:17:47;;;;;;;6.15;5.85;;;;;;;;;;5037146;28;20057;-91
2023/03/10 10:20:17;;;;;;;7.22;6.72;;;;;;;;;;5036704;28;20049;-91
2023/03/10 10:22:44;;;;;;;3.05;2.85;;;;;;;;;;5036976;28;20049;-91
2023/03/10 10:25:15;;;;;;;6.22;5.97;;;;;;;;;;5036794;28;20051;-91
2023/03/10 10:27:44;;;;;;;5.82;5.60;;;;;;;;;;5047676;28;20048;-91
2023/03/10 10:30:31;;;;;;;5.45;5.05;;;;;;;;;;5056605;28;20060;-91
2023/03/10 10:32:58;;;;;;;5.35;5.10;;;;;;;;;;5043904;28;20115;-91
2023/03/10 10:35:26;;;;;;;3.25;3.08;;;;;;;;;;5036563;28;20480;-92
2023/03/10 10:37:58;;;;;;;6.40;6.10;;;;;;;;;;5048362;28;20103;-91
2023/03/10 10:40:26;;;;;;;4.13;3.95;;;;;;;;;;5056703;28;20049;-91
2023/03/10 10:42:55;;;;;;;6.28;5.97;;;;;;;;;;5056039;28;20178;-90
2023/03/10 10:45:25;;;;;;;6.07;5.65;;;;;;;;;;5056504;28;20045;-91
2023/03/10 10:47:54;;;;;;;;;;;;;;;;;;5056407;28;20057;-91
2023/03/10 10:50:22;;;;;;;5.15;4.85;;;;;;;;;;5064271;28;19920;-91
2023/03/10 10:52:51;;;;;;;4.13;3.92;;;;;;;;;;5059539;28;20053;-92
2023/03/10 10:55:26;;;;;;;6.85;6.47;;;;;;;;;;5056459;28;20401;-91
2023/03/10 10:57:57;;;;;;;4.40;4.10;;;;;;;;;;5055864;28;20099;-92
2023/03/10 11:00:25;;;;;;;4.22;4.03;;;;;;;;;;5056272;28;20045;-90
2023/03/10 11:02:52;;;;;;;5.10;4.90;;;;;;;;;;5045233;28;20053;-90
2023/03/10 11:05:19;;;;;;;4.40;4.20;;;;;;;;;;5035849;28;20091;-90
2023/03/10 11:07:46;;;;;;;4.15;3.95;;;;;;;;;;5035518;28;20099;-91
2023/03/10 11:10:14;;;;;;;6.50;6.25;;;;;;;;;;5035609;28;20049;-90
2023/03/10 11:12:52;;;;;;;3.35;3.13;;;;;;;;;;5044342;28;20052;-91
2023/03/10 11:15:23;;;;;;;5.97;5.68;;;;;;;;;;5055720;28;20049;-90
2023/03/10 11:17:51;;;;;;;4.53;4.22;;;;;;;;;;5055162;28;20487;-90
2023/03/10 11:20:24;;;;;;;4.72;4.38;;;;;;;;;;5055631;28;20109;-90
2023/03/10 11:22:54;;;;;;;5.53;5.22;;;;;;;;;;5045690;28;20665;-91
2023/03/10 11:25:26;;;;;;;3.83;3.63;;;;;;;;;;5050729;28;20098;-89
2023/03/10 11:27:59;;;;;;;3.55;3.42;;;;;;;;;;5056845;28;20103;-89
2023/03/10 11:30:30;;;;;;;7.40;7.07;;;;;;;;;;5055633;28;20515;-90
2023/03/10 11:33:03;;;;;;;4.05;3.85;;;;;;;;;;5055345;28;20056;-90
2023/03/10 11:35:32;;;;;;;3.88;3.67;;;;;;;;;;5055175;28;20429;-90
2023/03/10 11:38:03;;;;;;;4.35;4.15;;;;;;;;;;5054969;28;20056;-90
2023/03/10 11:40:34;;;;;;;6.28;5.82;;;;;;;;;;5055006;28;20052;-91
2023/03/10 11:43:00;;;;;;;;;;;;;;;;;;5056033;28;20045;-90
2023/03/10 11:45:30;;;;;;;4.65;3.72;;;;;;;;;;5055262;28;19920;-90
2023/03/10 11:48:02;;;;;;;3.47;3.17;;;;;;;;;;5055099;28;20408;-90
2023/03/10 11:50:33;;;;;;;4.85;4.55;;;;;;;;;;5055355;28;20103;-90
2023/03/10 11:53:01;;;;;;;4.22;3.97;;;;;;;;;;5045958;28;20103;-92
2023/03/10 11:55:27;;;;;;;5.60;5.30;;;;;;;;;;5035178;28;20115;-90
2023/03/10 11:57:57;;;;;;;4.65;4.35;;;;;;;;;;5034885;28;20057;-91
2023/03/10 12:00:27;;;;;;;5.25;4.97;;;;;;;;;;5035135;28;20046;-91
2023/03/10 12:03:01;;;;;;;4.28;4.00;;;;;;;;;;5035403;28;20099;-91
2023/03/10 12:05:31;;;;;;;4.38;4.15;;;;;;;;;;5034886;28;20041;-91
2023/03/10 12:08:00;;;;;;;4.55;4.32;;;;;;;;;;5045914;28;20056;-90
2023/03/10 12:10:28;;;;;;;4.35;4.13;;;;;;;;;;5055258;28;20124;-90
2023/03/10 12:12:55;;;;;;;4.38;4.07;;;;;;;;;;5055098;28;20071;-91
2023/03/10 12:15:23;;;;;;;5.18;4.88;;;;;;;;;;5054738;28;20504;-91
2023/03/10 12:17:50;;;;;;;3.83;3.63;;;;;;;;;;5054391;28;20136;-91
2023/03/10 12:20:25;;;;;;;4.03;3.80;;;;;;;;;;5054854;28;20459;-90
2023/03/10 12:22:52;;;;;;;5.45;5.25;;;;;;;;;;5054820;28;20049;-90
2023/03/10 12:25:37;;;;;;;2.05;1.95;;;;;;;;;;5054047;28;20568;-90
2023/03/10 12:28:21;;;;;;;8.05;3.92;;;;;;;;;;5054186;28;20130;-90
2023/03/10 12:30:48;;;;;;;4.55;4.35;;;;;;;;;;5053832;28;20500;-90
2023/03/10 12:33:33;;;;;;;3.92;3.72;;;;;;;;;;5054149;28;20135;-91
2023/03/10 12:36:04;;;;;;;3.58;3.30;;;;;;;;;;5054180;28;20048;-91
2023/03/10 12:38:32;;;;;;;5.85;5.55;;;;;;;;;;5053182;28;20052;-91
2023/03/10 12:40:59;;;;;;;5.35;4.82;;;;;;;;;;5054000;28;20057;-91
2023/03/10 12:43:44;;;;;;;3.38;3.15;;;;;;;;;;5054430;28;20053;-91
2023/03/10 12:46:12;;;;;;;3.42;3.22;;;;;;;;;;5053583;28;20053;-90
2023/03/10 12:48:40;;;;;;;4.32;4.13;;;;;;;;;;5054038;28;20130;-90
2023/03/10 12:51:12;;;;;;;4.15;3.95;;;;;;;;;;5053359;28;20550;-90
2023/03/10 12:53:45;;;;;;;3.10;2.97;;;;;;;;;;5053680;28;20053;-90
2023/03/10 12:56:19;;;;;;;3.58;3.45;;;;;;;;;;5054053;28;20102;-91
2023/03/10 12:58:48;;;;;;;3.88;3.67;;;;;;;;;;5053688;28;20053;-91
2023/03/10 13:01:19;;;;;;;2.60;2.40;;;;;;;;;;5054068;28;20053;-91
2023/03/10 13:03:47;;;;;;;3.78;3.58;;;;;;;;;;5054076;28;20114;-89
2023/03/10 13:06:21;;;;;;;6.65;6.38;;;;;;;;;;5054111;28;20447;-89
2023/03/10 13:08:49;;;;;;;3.00;2.80;;;;;;;;;;5053967;28;20106;-88
2023/03/10 13:11:33;;;;;;;3.25;3.13;;;;;;;;;;5053431;28;20547;-89
2023/03/10 13:14:01;;;;;;;2.72;2.63;;;;;;;;;;5053979;28;20107;-90
2023/03/10 13:16:28;;;;;;;1.42;1.33;;;;;;;;;;5053435;28;20435;-90
2023/03/10 13:18:55;;;;;;;4.82;3.50;;;;;;;;;;5053401;28;20106;-90
2023/03/10 13:21:24;;;;;;;3.88;3.67;;;;;;;;;;5052958;28;20508;-90
2023/03/10 13:23:51;;;;;;;3.58;3.38;;;;;;;;;;5053080;28;20084;-90
2023/03/10 13:26:17;;;;;;;2.58;2.38;;;;;;;;;;5050954;28;20041;-90
2023/03/10 13:28:51;;;;;;;4.25;3.95;;;;;;;;;;5053111;28;20052;-90
2023/03/10 13:31:20;;;;;;;4.45;4.15;;;;;;;;;;5053268;28;20045;-90
2023/03/10 13:33:47;;;;;;;2.72;2.60;;;;;;;;;;5053315;28;20049;-90
2023/03/10 13:36:20;;;;;;;3.08;2.92;;;;;;;;;;5053106;28;20118;-91
2023/03/10 13:38:49;;;;;;;3.75;3.55;;;;;;;;;;5053347;28;20443;-91
2023/03/10 13:41:15;;;;;;;6.72;6.45;;;;;;;;;;5052965;28;20132;-91
2023/03/10 13:43:45;;;;;;;2.60;2.50;;;;;;;;;;5044583;28;20049;-91
2023/03/10 13:46:15;;;;;;;4.50;3.67;;;;;;;;;;5033175;28;20050;-90
2023/03/10 13:48:42;;;;;;;4.50;4.30;;;;;;;;;;5032589;28;20569;-89
2023/03/10 13:51:18;;;;;;;2.40;2.28;;;;;;;;;;5033186;28;20049;-89
2023/03/10 13:53:45;;;;;;;4.05;3.85;;;;;;;;;;5033081;28;20057;-90
2023/03/10 13:56:19;;;;;;;2.50;2.35;;;;;;;;;;5033075;28;20455;-91
2023/03/10 13:58:45;;;;;;;5.35;5.15;;;;;;;;;;5049617;28;20133;-90
2023/03/10 14:01:15;;;;;;;3.15;3.05;;;;;;;;;;5052915;28;20500;-90
2023/03/10 14:03:48;;;;;;;4.53;3.72;;;;;;;;;;5052868;28;20052;-89
2023/03/10 14:06:15;;;;;;;5.78;5.55;;;;;;;;;;5052710;28;20126;-89
2023/03/10 14:08:41;;;;;;;2.72;2.58;;;;;;;;;;5052786;28;20056;-91
2023/03/10 14:11:22;;;;;;;9.65;9.15;;;;;;;;;;5058504;28;20412;-90
2023/03/10 14:13:50;;;;;;;3.20;3.10;;;;;;;;;;5072843;28;20049;-89
2023/03/10 14:16:16;;;;;;;3.67;3.50;;;;;;;;;;5055757;28;20045;-91
2023/03/10 14:18:43;;;;;;;4.25;4.05;;;;;;;;;;5072944;28;20106;-91
2023/03/10 14:21:23;;;;;;;3.75;3.55;;;;;;;;;;5072748;28;20090;-88
2023/03/10 14:23:50;;;;;;;3.83;3.63;;;;;;;;;;5061359;28;20052;-91
2023/03/10 14:26:17;;;;;;;4.93;4.55;;;;;;;;;;5052214;28;20049;-90
2023/03/10 14:28:45;;;;;;;2.75;2.65;;;;;;;;;;5052846;28;20439;-90
2023/03/10 14:31:18;;;;;;;5.07;4.78;;;;;;;;;;5033007;28;20057;-91
2023/03/10 14:33:44;;;;;;;5.47;5.25;;;;;;;;;;5033117;28;20053;-90
2023/03/10 14:36:11;;;;;;;4.53;4.32;;;;;;;;;;5032947;28;20107;-90
2023/03/10 14:38:37;;;;;;;4.47;4.22;;;;;;;;;;5032921;28;20054;-91
2023/03/10 14:41:04;;;;;;;4.35;4.13;;;;;;;;;;5033581;28;20100;-90
2023/03/10 14:43:31;;;;;;;3.58;3.42;;;;;;;;;;5052712;28;20130;-90
2023/03/10 14:46:00;;;;;;;3.15;2.95;;;;;;;;;;5052585;28;20410;-90
2023/03/10 14:48:28;;;;;;;4.63;4.32;;;;;;;;;;5053889;28;20133;-89